Time;durP1;ratioP1;P1;durP2;ratioP2;P2;SDS_P1;SDS_P2;PMS_P1;PMS_P2;Temp;Humidity;BMP_temperature;BMP_pressure;BME280_temperature;BME280_humidity;BME280_pressure;Samples;Min_cycle;Max_cycle;Signal;HPM_P1;HPM_P2
2023/10/08 00:01:42;;;;;;;0.20;0.20;;;13.30;99.90;;;;;;4939379;29;20234;-79
2023/10/08 00:04:10;;;;;;;0.20;0.20;;;13.20;99.90;;;;;;4943503;29;20889;-76
2023/10/08 00:06:38;;;;;;;0.10;0.10;;;13.00;99.90;;;;;;4943134;29;20284;-79
2023/10/08 00:09:08;;;;;;;0.10;0.10;;;13.00;99.90;;;;;;4943946;29;20227;-77
2023/10/08 00:11:39;;;;;;;0.43;0.20;;;13.00;99.90;;;;;;4941845;29;20590;-78
2023/10/08 00:14:09;;;;;;;1.57;0.20;;;12.90;99.90;;;;;;4938487;29;20270;-77
2023/10/08 00:16:39;;;;;;;0.43;0.33;;;13.00;99.90;;;;;;4943755;29;20317;-77
2023/10/08 00:19:09;;;;;;;0.60;0.30;;;13.00;99.90;;;;;;4943083;29;20261;-78
2023/10/08 00:21:37;;;;;;;0.47;0.20;;;13.10;99.90;;;;;;4943998;29;20215;-77
2023/10/08 00:24:07;;;;;;;0.23;0.10;;;13.00;99.90;;;;;;4951844;29;20211;-78
2023/10/08 00:26:35;;;;;;;0.20;0.20;;;13.10;99.90;;;;;;4952808;29;20290;-78
2023/10/08 00:29:06;;;;;;;0.20;0.20;;;13.00;99.90;;;;;;4952359;29;20227;-77
2023/10/08 00:31:37;;;;;;;0.30;0.30;;;13.00;99.90;;;;;;4959486;29;20214;-79
2023/10/08 00:34:05;;;;;;;0.20;0.20;;;13.10;99.90;;;;;;4953202;29;20266;-79
2023/10/08 00:36:34;;;;;;;0.30;0.20;;;13.10;99.90;;;;;;4943394;29;20242;-78
2023/10/08 00:39:00;;;;;;;0.30;0.30;;;13.10;99.90;;;;;;4942559;29;20269;-78
2023/10/08 00:41:30;;;;;;;0.50;0.50;;;12.90;99.90;;;;;;4944118;29;20207;-79
2023/10/08 00:43:59;;;;;;;0.40;0.40;;;13.00;99.90;;;;;;4944250;29;20698;-78
2023/10/08 00:46:30;;;;;;;0.40;0.40;;;12.90;99.90;;;;;;4943869;29;20209;-78
2023/10/08 00:49:11;;;;;;;0.20;0.20;;;13.00;99.90;;;;;;4944402;29;20231;-77
2023/10/08 00:51:41;;;;;;;0.40;0.40;;;12.90;99.90;;;;;;4943344;29;20211;-79
2023/10/08 00:54:10;;;;;;;0.30;0.30;;;13.00;99.90;;;;;;4944242;29;20218;-77
2023/10/08 00:56:52;;;;;;;0.30;0.20;;;12.90;99.90;;;;;;4942851;29;20250;-78
2023/10/08 00:59:21;;;;;;;0.20;0.20;;;12.90;99.90;;;;;;4950057;29;20230;-77
2023/10/08 01:01:51;;;;;;;0.20;0.20;;;12.80;99.90;;;;;;4942524;29;20218;-78
2023/10/08 01:04:22;;;;;;;0.20;0.10;;;12.90;99.90;;;;;;4943513;29;20192;-77
2023/10/08 01:06:54;;;;;;;0.10;0.10;;;12.90;99.90;;;;;;4941626;29;20199;-77
2023/10/08 01:09:22;;;;;;;0.00;0.00;;;12.70;99.90;;;;;;4940309;29;20777;-77
2023/10/08 01:12:15;;;;;;;0.00;0.00;;;12.80;99.90;;;;;;4942497;29;20207;-79
2023/10/08 01:14:46;;;;;;;0.00;0.00;;;12.70;99.90;;;;;;4942664;29;20217;-78
2023/10/08 01:17:15;;;;;;;0.00;0.00;;;12.60;99.90;;;;;;4950291;29;20310;-78
2023/10/08 01:19:45;;;;;;;0.00;0.00;;;12.80;99.90;;;;;;4942180;29;20219;-79
2023/10/08 01:22:18;;;;;;;0.00;0.00;;;12.60;99.90;;;;;;4939452;29;20679;-77
2023/10/08 01:24:46;;;;;;;0.20;0.00;;;12.70;99.90;;;;;;4942307;29;20218;-78
2023/10/08 01:27:13;;;;;;;0.20;0.10;;;12.60;99.90;;;;;;4943169;29;20215;-77
2023/10/08 01:29:43;;;;;;;0.40;0.20;;;12.50;99.90;;;;;;4942879;29;20227;-78
2023/10/08 01:32:11;;;;;;;0.30;0.30;;;12.30;99.90;;;;;;4943633;29;20203;-78
2023/10/08 01:34:38;;;;;;;0.50;0.40;;;11.80;99.90;;;;;;4945053;29;20206;-80
2023/10/08 01:37:08;;;;;;;0.27;0.20;;;11.80;99.90;;;;;;4944276;29;20242;-78
2023/10/08 01:39:39;;;;;;;1.57;0.50;;;11.60;99.90;;;;;;4944005;29;20247;-79
2023/10/08 01:42:15;;;;;;;2.73;0.90;;;11.50;99.90;;;;;;4947728;29;20207;-79
2023/10/08 01:44:41;;;;;;;2.87;0.87;;;11.30;99.90;;;;;;4942373;29;20206;-79
2023/10/08 01:47:11;;;;;;;3.70;1.00;;;11.20;99.90;;;;;;4942978;29;20211;-78
2023/10/08 01:49:39;;;;;;;6.77;1.57;;;11.10;99.90;;;;;;4942640;29;20233;-78
2023/10/08 01:52:12;;;;;;;5.33;1.03;;;11.10;99.90;;;;;;4942564;29;20207;-78
2023/10/08 01:54:41;;;;;;;8.20;1.70;;;11.10;99.90;;;;;;4943714;29;20211;-78
2023/10/08 01:57:09;;;;;;;4.23;1.03;;;11.10;99.90;;;;;;4943776;29;20294;-78
2023/10/08 01:59:37;;;;;;;5.10;1.40;;;11.20;99.90;;;;;;4943665;29;20227;-78
2023/10/08 02:02:05;;;;;;;6.47;1.70;;;11.30;99.90;;;;;;4943671;29;20219;-78
2023/10/08 02:04:35;;;;;;;6.57;1.33;;;11.20;99.90;;;;;;4949069;29;20679;-78
2023/10/08 02:07:03;;;;;;;3.87;1.13;;;11.30;99.90;;;;;;4936277;29;20199;-80
2023/10/08 02:09:30;;;;;;;5.47;1.07;;;12.00;99.90;;;;;;4939868;29;20230;-79
2023/10/08 02:11:58;;;;;;;3.57;1.10;;;11.30;99.90;;;;;;4942511;29;20685;-78
2023/10/08 02:14:25;;;;;;;4.13;1.10;;;11.30;99.90;;;;;;4942365;29;20207;-79
2023/10/08 02:16:56;;;;;;;6.10;1.70;;;11.40;99.90;;;;;;4943070;29;20713;-79
2023/10/08 02:19:26;;;;;;;5.13;1.23;;;11.40;99.90;;;;;;4942623;29;20295;-79
2023/10/08 02:21:54;;;;;;;6.40;1.57;;;11.40;99.90;;;;;;4944590;29;20202;-78
2023/10/08 02:24:23;;;;;;;4.00;1.27;;;11.50;99.90;;;;;;4945848;29;20210;-80
2023/10/08 02:26:51;;;;;;;4.00;1.30;;;11.30;99.90;;;;;;4941977;29;20710;-79
2023/10/08 02:29:19;;;;;;;1.87;0.90;;;11.40;99.90;;;;;;4943327;29;20227;-79
2023/10/08 02:31:47;;;;;;;5.50;1.27;;;11.30;99.90;;;;;;4939902;29;20213;-78
2023/10/08 02:34:15;;;;;;;7.70;1.30;;;11.10;99.90;;;;;;4930457;29;20208;-79
2023/10/08 02:36:41;;;;;;;3.27;1.33;;;11.10;99.90;;;;;;4942904;29;20679;-77
2023/10/08 02:39:17;;;;;;;2.60;1.00;;;11.10;99.90;;;;;;4943036;29;20231;-78
2023/10/08 02:41:46;;;;;;;7.33;1.57;;;11.20;99.90;;;;;;4949083;29;20297;-78
2023/10/08 02:44:14;;;;;;;6.37;1.90;;;11.40;99.90;;;;;;4943388;29;20219;-79
2023/10/08 02:46:44;;;;;;;6.37;1.53;;;11.50;99.90;;;;;;4943397;29;20277;-80
2023/10/08 02:49:12;;;;;;;2.80;1.30;;;11.70;99.90;;;;;;4942388;29;20231;-79
2023/10/08 02:51:40;;;;;;;5.27;1.50;;;11.50;99.90;;;;;;4939405;29;20262;-79
2023/10/08 02:54:16;;;;;;;2.37;1.17;;;11.60;99.90;;;;;;4942261;29;20215;-77
2023/10/08 02:56:44;;;;;;;6.10;1.40;;;11.60;99.90;;;;;;4939980;29;20227;-79
2023/10/08 02:59:12;;;;;;;6.10;1.77;;;11.60;99.90;;;;;;4943525;29;20230;-81
2023/10/08 03:01:39;;;;;;;6.60;1.03;;;11.40;99.90;;;;;;4945970;29;20212;-80
2023/10/08 03:04:17;;;;;;;4.77;0.80;;;11.20;99.90;;;;;;4946866;29;20706;-80
2023/10/08 03:06:44;;;;;;;3.63;1.10;;;11.20;99.90;;;;;;4951807;29;20198;-80
2023/10/08 03:09:13;;;;;;;4.73;1.50;;;11.30;99.90;;;;;;4945429;29;20222;-79
2023/10/08 03:11:46;;;;;;;3.20;1.07;;;11.30;99.90;;;;;;4945902;29;20663;-81
2023/10/08 03:14:21;;;;;;;3.17;1.10;;;11.40;99.90;;;;;;4945303;29;20274;-79
2023/10/08 03:16:49;;;;;;;3.03;1.13;;;11.30;99.90;;;;;;4942780;29;20214;-80
2023/10/08 03:19:19;;;;;;;5.83;1.20;;;11.30;99.90;;;;;;4944495;29;20231;-81
2023/10/08 03:21:51;;;;;;;3.27;1.00;;;11.40;99.90;;;;;;4942273;29;20223;-79
2023/10/08 03:24:36;;;;;;;3.27;1.40;;;11.40;99.90;;;;;;4928128;29;20208;-79
2023/10/08 03:27:07;;;;;;;1.97;0.80;;;11.40;99.90;;;;;;4947221;29;20302;-79
2023/10/08 03:29:40;;;;;;;3.13;1.23;;;11.30;99.90;;;;;;4944273;29;20266;-78
2023/10/08 03:32:12;;;;;;;3.87;1.53;;;11.20;99.90;;;;;;4944628;29;20662;-80
2023/10/08 03:34:43;;;;;;;4.67;1.50;;;11.20;99.90;;;;;;4943841;29;20214;-79
2023/10/08 03:37:15;;;;;;;4.70;1.50;;;11.30;99.90;;;;;;4945802;29;20675;-79
2023/10/08 03:40:00;;;;;;;3.13;1.20;;;11.20;99.90;;;;;;4937163;29;20231;-79
2023/10/08 03:42:34;;;;;;;4.47;1.00;;;11.20;99.90;;;;;;4944273;29;20628;-81
2023/10/08 03:45:10;;;;;;;2.20;1.00;;;11.60;99.90;;;;;;4945017;29;20199;-81
2023/10/08 03:47:38;;;;;;;5.60;1.80;;;11.40;99.90;;;;;;4944340;29;20235;-79
2023/10/08 03:50:09;;;;;;;2.23;0.73;;;11.40;99.90;;;;;;4946372;29;20244;-80
2023/10/08 03:52:38;;;;;;;5.97;1.20;;;11.30;99.90;;;;;;4940791;29;20200;-81
2023/10/08 03:55:21;;;;;;;4.20;1.10;;;11.20;99.90;;;;;;4944239;29;20203;-79
2023/10/08 03:57:56;;;;;;;5.10;1.23;;;11.30;99.90;;;;;;4945535;29;20214;-81
2023/10/08 04:00:31;;;;;;;3.77;1.43;;;11.60;99.90;;;;;;4946260;29;20267;-79
2023/10/08 04:03:01;;;;;;;5.53;1.63;;;11.50;99.90;;;;;;4945700;29;20698;-79
2023/10/08 04:05:40;;;;;;;1.90;0.93;;;11.40;99.90;;;;;;4944198;29;20215;-79
2023/10/08 04:08:17;;;;;;;3.77;1.40;;;11.30;99.90;;;;;;4942246;29;20434;-79
2023/10/08 04:11:07;;;;;;;3.43;1.70;;;11.40;99.90;;;;;;4944588;29;20719;-80
2023/10/08 04:13:35;;;;;;;5.10;1.33;;;11.40;99.90;;;;;;4940200;29;20195;-79
2023/10/08 04:16:04;;;;;;;4.07;1.20;;;11.40;99.90;;;;;;4945769;29;20218;-80
2023/10/08 04:18:32;;;;;;;3.90;1.20;;;11.30;99.90;;;;;;4944214;29;20277;-79
2023/10/08 04:21:04;;;;;;;5.37;1.50;;;11.50;99.90;;;;;;4945741;29;20199;-80
2023/10/08 04:23:31;;;;;;;4.47;1.37;;;11.90;99.90;;;;;;4946294;29;20199;-80
2023/10/08 04:25:58;;;;;;;7.70;1.23;;;11.50;99.90;;;;;;4948824;29;20207;-79
2023/10/08 04:28:28;;;;;;;5.80;1.70;;;11.50;99.90;;;;;;4951931;29;20558;-80
2023/10/08 04:31:00;;;;;;;8.97;1.77;;;11.50;99.90;;;;;;4946273;29;20210;-80
2023/10/08 04:33:31;;;;;;;4.13;1.67;;;11.60;99.90;;;;;;4950594;29;20279;-81
2023/10/08 04:36:01;;;;;;;2.30;1.23;;;11.50;99.90;;;;;;4944302;29;20708;-79
2023/10/08 04:38:36;;;;;;;3.60;1.20;;;11.50;99.90;;;;;;4946948;29;20246;-81
2023/10/08 04:41:08;;;;;;;6.53;1.63;;;11.60;99.90;;;;;;4944664;29;20254;-79
2023/10/08 04:43:37;;;;;;;7.03;2.57;;;11.50;99.90;;;;;;4945240;29;20199;-79
2023/10/08 04:46:19;;;;;;;4.87;1.27;;;11.50;99.90;;;;;;4944280;29;20203;-78
2023/10/08 04:48:46;;;;;;;5.50;1.33;;;11.40;99.90;;;;;;4944826;29;20599;-79
2023/10/08 04:51:14;;;;;;;21.27;8.97;;;11.40;99.90;;;;;;4939072;29;20207;-78
2023/10/08 04:53:43;;;;;;;12.27;5.57;;;11.40;99.90;;;;;;4939871;29;20286;-79
2023/10/08 04:56:16;;;;;;;6.97;2.47;;;11.60;99.90;;;;;;4945720;29;20207;-79
2023/10/08 04:58:46;;;;;;;7.50;1.93;;;11.60;99.90;;;;;;4944225;29;20330;-79
2023/10/08 05:01:20;;;;;;;6.63;1.60;;;11.60;99.90;;;;;;4943409;29;20218;-79
2023/10/08 05:07:00;;;;;;;6.13;1.30;;;11.50;99.90;;;;;;4941324;29;20215;-79
2023/10/08 05:09:39;;;;;;;4.10;1.20;;;11.50;99.90;;;;;;4940705;29;20255;-81
2023/10/08 05:12:11;;;;;;;5.23;1.40;;;11.50;99.90;;;;;;4943676;29;20211;-80
2023/10/08 05:14:45;;;;;;;6.07;1.60;;;11.50;99.90;;;;;;4941722;29;20531;-80
2023/10/08 05:17:22;;;;;;;3.70;1.17;;;11.50;99.90;;;;;;4949361;29;20225;-78
2023/10/08 05:20:01;;;;;;;2.57;1.20;;;11.40;99.90;;;;;;4940034;29;20227;-81
2023/10/08 05:22:43;;;;;;;5.63;1.93;;;11.50;99.90;;;;;;4942764;29;20685;-81
2023/10/08 05:25:24;;;;;;;4.73;1.27;;;11.60;99.90;;;;;;4937209;29;20659;-80
2023/10/08 05:28:09;;;;;;;3.83;1.43;;;11.50;99.90;;;;;;4939171;29;20199;-81
2023/10/08 05:30:39;;;;;;;7.97;1.80;;;11.50;99.90;;;;;;4938419;29;20294;-79
2023/10/08 05:33:12;;;;;;;6.87;1.53;;;11.50;99.90;;;;;;4943333;29;20211;-81
2023/10/08 05:35:49;;;;;;;6.80;1.60;;;11.50;99.90;;;;;;4943439;29;20203;-80
2023/10/08 05:38:48;;;;;;;4.27;1.33;;;11.80;99.90;;;;;;4943470;29;20278;-80
2023/10/08 05:41:27;;;;;;;4.40;1.60;;;11.50;99.90;;;;;;4946951;29;20258;-79
2023/10/08 05:57:40;;;;;;;3.30;1.50;;;12.30;99.90;;;;;;4933996;29;20323;-79
2023/10/08 06:03:09;;;;;;;3.87;1.40;;;11.50;99.90;;;;;;4934764;29;20205;-82
2023/10/08 06:05:47;;;;;;;2.80;1.50;;;11.70;99.90;;;;;;4933168;29;20210;-80
2023/10/08 06:08:14;;;;;;;3.20;1.40;;;11.70;99.90;;;;;;4939471;29;20722;-80
2023/10/08 06:10:44;;;;;;;3.43;1.50;;;11.80;99.90;;;;;;4935947;29;20223;-82
2023/10/08 06:13:15;;;;;;;6.13;1.40;;;11.60;99.90;;;;;;4942599;29;20238;-81
2023/10/08 06:15:48;;;;;;;6.90;1.50;;;11.70;99.90;;;;;;4941799;29;20206;-79
2023/10/08 06:18:14;;;;;;;5.07;1.13;;;11.70;99.90;;;;;;4943059;29;20329;-79
2023/10/08 06:20:43;;;;;;;6.50;1.57;;;11.70;99.90;;;;;;4941402;29;20285;-79
2023/10/08 06:23:12;;;;;;;4.43;1.13;;;11.70;99.90;;;;;;4938546;29;20211;-81
2023/10/08 06:25:45;;;;;;;6.10;1.33;;;11.60;99.90;;;;;;4933688;29;20210;-83
2023/10/08 06:28:15;;;;;;;9.10;1.23;;;11.60;99.90;;;;;;4931844;29;20244;-84
2023/10/08 06:30:42;;;;;;;2.27;1.00;;;11.70;99.90;;;;;;4929214;29;20258;-83
2023/10/08 06:33:10;;;;;;;3.10;1.30;;;11.60;99.90;;;;;;4935223;29;20207;-82
2023/10/08 06:35:37;;;;;;;2.47;1.23;;;11.60;99.90;;;;;;4930541;29;20207;-83
2023/10/08 06:38:07;;;;;;;2.70;1.30;;;11.70;99.90;;;;;;4937240;29;20226;-82
2023/10/08 06:40:41;;;;;;;4.40;1.13;;;11.70;99.90;;;;;;4938146;29;20206;-85
2023/10/08 06:45:57;;;;;;;4.93;1.57;;;11.80;99.90;;;;;;4938924;29;20214;-81
2023/10/08 06:48:25;;;;;;;4.37;1.30;;;11.70;99.90;;;;;;4942966;29;20252;-80
2023/10/08 06:50:56;;;;;;;5.80;1.30;;;11.80;99.90;;;;;;4932472;29;20210;-81
2023/10/08 06:53:24;;;;;;;5.17;1.10;;;11.90;99.90;;;;;;4931639;29;20278;-82
2023/10/08 06:55:56;;;;;;;3.67;1.30;;;11.80;99.90;;;;;;4947234;29;20210;-83
2023/10/08 06:58:23;;;;;;;3.83;1.27;;;12.00;99.90;;;;;;4940965;29;20695;-82
2023/10/08 07:00:50;;;;;;;2.70;0.90;;;12.00;99.90;;;;;;4940864;29;20205;-81
2023/10/08 07:03:18;;;;;;;6.20;3.03;;;12.20;99.90;;;;;;4942323;29;20207;-80
2023/10/08 07:05:54;;;;;;;3.80;2.20;;;12.30;99.90;;;;;;4938150;29;20205;-83
2023/10/08 07:08:25;;;;;;;3.03;1.27;;;12.30;99.90;;;;;;4941023;29;20250;-83
2023/10/08 07:10:52;;;;;;;9.57;1.23;;;12.30;99.90;;;;;;4937195;29;20214;-83
2023/10/08 07:13:21;;;;;;;4.17;1.00;;;12.20;99.90;;;;;;4939375;29;20310;-83
2023/10/08 07:15:50;;;;;;;3.07;1.33;;;12.30;99.90;;;;;;4939605;29;20207;-83
2023/10/08 07:18:24;;;;;;;6.53;1.80;;;12.30;99.90;;;;;;4936402;29;20660;-82
2023/10/08 07:20:54;;;;;;;3.20;1.10;;;12.30;99.90;;;;;;4940622;29;20202;-82
2023/10/08 07:23:25;;;;;;;4.43;1.00;;;12.30;99.90;;;;;;4926722;29;20589;-84
2023/10/08 07:25:59;;;;;;;4.77;1.97;;;12.30;99.90;;;;;;4951968;29;20251;-82
2023/10/08 07:28:26;;;;;;;3.23;1.17;;;12.40;99.90;;;;;;4935676;29;20246;-83
2023/10/08 07:30:54;;;;;;;13.13;1.50;;;12.50;99.90;;;;;;4935748;29;20599;-80
2023/10/08 07:33:24;;;;;;;5.70;1.50;;;12.40;99.90;;;;;;4935699;29;20719;-80
2023/10/08 07:35:56;;;;;;;5.00;1.60;;;12.60;99.90;;;;;;4936718;29;20211;-81
2023/10/08 07:38:28;;;;;;;4.10;1.07;;;12.70;99.90;;;;;;4939956;29;20262;-82
2023/10/08 07:40:56;;;;;;;3.27;1.00;;;12.80;99.90;;;;;;4930717;29;20219;-84
2023/10/08 07:43:23;;;;;;;2.87;1.10;;;12.70;99.90;;;;;;4940002;29;20203;-81
2023/10/08 07:45:49;;;;;;;6.33;1.37;;;12.60;99.90;;;;;;4933168;29;20271;-80
2023/10/08 07:48:16;;;;;;;6.00;2.03;;;12.50;99.90;;;;;;4931860;29;20228;-85
2023/10/08 07:50:46;;;;;;;5.03;1.80;;;12.60;99.90;;;;;;4928565;29;20203;-83
2023/10/08 07:53:18;;;;;;;3.93;1.60;;;12.60;99.90;;;;;;4938967;29;20210;-82
2023/10/08 07:55:47;;;;;;;4.03;1.40;;;12.60;99.90;;;;;;4938390;29;20299;-82
2023/10/08 07:58:15;;;;;;;4.43;1.40;;;12.80;99.90;;;;;;4939807;29;20244;-81
2023/10/08 08:00:51;;;;;;;4.43;1.57;;;13.00;99.90;;;;;;4939584;29;20206;-82
2023/10/08 08:03:19;;;;;;;3.23;1.70;;;12.90;99.90;;;;;;4941677;29;20207;-80
2023/10/08 08:05:48;;;;;;;5.53;1.80;;;12.90;99.90;;;;;;4938904;29;20199;-81
2023/10/08 08:08:17;;;;;;;3.23;1.43;;;13.00;99.90;;;;;;4941078;29;20265;-80
2023/10/08 08:10:45;;;;;;;3.93;2.00;;;13.10;99.90;;;;;;4939644;29;20211;-80
2023/10/08 08:13:13;;;;;;;3.60;1.67;;;13.10;99.90;;;;;;4939478;29;20215;-78
2023/10/08 08:15:50;;;;;;;6.07;2.20;;;13.00;99.90;;;;;;4942315;29;20210;-78
2023/10/08 08:18:22;;;;;;;3.10;1.90;;;13.00;99.90;;;;;;4936412;29;20702;-80
2023/10/08 08:20:50;;;;;;;7.50;2.03;;;12.90;99.90;;;;;;4941172;29;20645;-78
2023/10/08 08:23:17;;;;;;;5.93;1.60;;;13.00;99.90;;;;;;4936792;29;20318;-78
2023/10/08 08:25:55;;;;;;;4.50;2.00;;;13.00;99.90;;;;;;4943733;29;20864;-79
2023/10/08 08:28:24;;;;;;;4.63;1.80;;;13.10;99.90;;;;;;4943515;29;20278;-78
2023/10/08 08:30:55;;;;;;;5.93;1.97;;;13.10;99.90;;;;;;4941519;29;20204;-79
2023/10/08 08:33:29;;;;;;;3.97;1.97;;;13.30;99.90;;;;;;4943565;29;20647;-79
2023/10/08 08:36:01;;;;;;;8.23;2.40;;;13.30;99.90;;;;;;4940528;29;20210;-79
2023/10/08 08:38:29;;;;;;;6.20;1.70;;;13.30;99.90;;;;;;4944400;29;20290;-79
2023/10/08 08:41:06;;;;;;;6.67;2.93;;;13.30;99.90;;;;;;4941433;29;20207;-78
2023/10/08 08:43:35;;;;;;;7.50;1.67;;;13.40;99.90;;;;;;4939816;29;20274;-81
2023/10/08 08:46:06;;;;;;;3.77;1.63;;;13.20;99.90;;;;;;4935576;29;20271;-79
2023/10/08 08:48:35;;;;;;;5.40;2.00;;;13.40;99.90;;;;;;4941168;29;20230;-81
2023/10/08 08:51:03;;;;;;;6.83;2.23;;;13.40;99.90;;;;;;4937934;29;20705;-79
2023/10/08 08:53:33;;;;;;;5.67;1.60;;;13.40;99.90;;;;;;4942626;29;20214;-79
2023/10/08 08:56:03;;;;;;;5.70;2.38;;;13.50;99.90;;;;;;4937671;29;20218;-79
2023/10/08 08:58:32;;;;;;;8.20;1.83;;;13.60;99.90;;;;;;4939778;29;20265;-80
2023/10/08 09:01:00;;;;;;;6.00;1.50;;;13.40;99.90;;;;;;4940469;29;20262;-78
2023/10/08 09:03:30;;;;;;;5.95;1.52;;;13.50;99.90;;;;;;4945498;29;20218;-78
2023/10/08 09:05:57;;;;;;;4.85;2.28;;;13.50;99.90;;;;;;4940941;29;20236;-80
2023/10/08 09:08:29;;;;;;;5.57;1.60;;;13.50;99.90;;;;;;4940077;29;20222;-78
2023/10/08 09:11:00;;;;;;;7.17;1.77;;;13.70;99.90;;;;;;4940484;29;20200;-79
2023/10/08 09:13:28;;;;;;;2.37;0.80;;;13.80;99.90;;;;;;4939546;29;20203;-78
2023/10/08 09:16:03;;;;;;;4.60;1.20;;;13.80;99.90;;;;;;4943044;29;20314;-78
2023/10/08 09:18:32;;;;;;;13.55;6.43;;;13.90;99.90;;;;;;4942707;29;20623;-79
2023/10/08 09:21:10;;;;;;;5.20;2.20;;;13.90;99.90;;;;;;4941678;29;20734;-77
2023/10/08 09:23:43;;;;;;;8.27;1.80;;;14.00;99.90;;;;;;4943748;29;20210;-79
2023/10/08 09:26:10;;;;;;;5.25;1.30;;;13.90;99.90;;;;;;4938485;29;20207;-80
2023/10/08 09:28:40;;;;;;;3.90;1.27;;;14.00;99.90;;;;;;4940887;29;20230;-79
2023/10/08 09:31:11;;;;;;;7.85;1.10;;;14.10;99.90;;;;;;4940110;29;20215;-79
2023/10/08 09:33:38;;;;;;;6.57;1.20;;;14.10;99.90;;;;;;4938431;29;20553;-78
2023/10/08 09:36:07;;;;;;;5.82;1.30;;;14.00;99.90;;;;;;4938064;29;20211;-78
2023/10/08 09:38:34;;;;;;;5.13;1.10;;;14.20;99.90;;;;;;4937205;29;20712;-80
2023/10/08 09:41:03;;;;;;;2.55;1.08;;;14.40;99.90;;;;;;4943517;29;20211;-78
2023/10/08 09:43:30;;;;;;;3.80;1.92;;;14.60;99.90;;;;;;4941711;29;20214;-77
2023/10/08 09:46:06;;;;;;;4.65;1.05;;;14.70;99.90;;;;;;4943119;29;20199;-77
2023/10/08 09:48:38;;;;;;;4.68;0.95;;;15.00;99.90;;;;;;4939991;29;20227;-77
2023/10/08 09:51:07;;;;;;;3.30;1.17;;;15.30;99.90;;;;;;4935530;29;20218;-77
2023/10/08 09:53:47;;;;;;;4.78;1.13;;;15.30;99.90;;;;;;4940922;29;20214;-78
2023/10/08 09:56:17;;;;;;;3.90;1.15;;;15.60;99.90;;;;;;4934885;29;20207;-79
2023/10/08 09:58:45;;;;;;;5.03;1.55;;;15.60;99.90;;;;;;4933624;29;20593;-79
2023/10/08 10:01:13;;;;;;;3.92;1.83;;;15.30;99.90;;;;;;4939756;29;20580;-78
2023/10/08 10:03:42;;;;;;;3.42;1.33;;;15.50;99.90;;;;;;4932824;29;20238;-76
2023/10/08 10:06:14;;;;;;;5.30;1.30;;;15.40;99.90;;;;;;4931288;29;20208;-77
2023/10/08 10:08:42;;;;;;;4.93;1.25;;;15.40;99.90;;;;;;4936152;29;20294;-79
2023/10/08 10:11:10;;;;;;;3.33;1.67;;;15.70;99.90;;;;;;4933652;29;20213;-79
2023/10/08 10:13:44;;;;;;;6.55;1.55;;;15.80;99.90;;;;;;4933100;29;20521;-79
2023/10/08 10:16:13;;;;;;;4.57;1.33;;;15.70;99.90;;;;;;4935246;29;20297;-80
2023/10/08 10:18:40;;;;;;;3.28;1.25;;;15.30;99.90;;;;;;4932581;29;20318;-77
2023/10/08 10:21:28;;;;;;;4.60;1.17;;;15.10;99.90;;;;;;4934019;29;20204;-78
2023/10/08 10:23:56;;;;;;;7.57;1.67;;;15.20;99.90;;;;;;4937027;29;20199;-78
2023/10/08 10:26:25;;;;;;;4.25;1.73;;;15.40;99.90;;;;;;4931788;29;20686;-78
2023/10/08 10:29:26;;;;;;;4.38;1.30;;;15.50;99.90;;;;;;4940967;29;20297;-78
2023/10/08 10:31:54;;;;;;;5.70;1.30;;;15.60;99.90;;;;;;4941054;29;20210;-78
2023/10/08 10:34:24;;;;;;;7.25;1.80;;;15.70;99.90;;;;;;4939239;29;20210;-78
2023/10/08 10:36:55;;;;;;;3.33;1.42;;;15.60;99.90;;;;;;4939724;29;20199;-79
2023/10/08 10:39:27;;;;;;;6.32;1.50;;;15.70;99.90;;;;;;4939745;29;20230;-77
2023/10/08 10:42:01;;;;;;;4.20;1.50;;;15.70;99.90;;;;;;4936593;29;20204;-78
2023/10/08 10:44:30;;;;;;;3.70;1.38;;;15.90;99.90;;;;;;4933380;29;20214;-77
2023/10/08 10:49:48;;;;;;;7.13;1.98;;;15.70;99.90;;;;;;4937998;29;20219;-78
2023/10/08 10:52:18;;;;;;;8.23;1.42;;;15.90;99.90;;;;;;4941762;29;20655;-79
2023/10/08 10:54:58;;;;;;;3.08;1.35;;;15.60;99.90;;;;;;4939907;29;21611;-78
2023/10/08 10:57:26;;;;;;;5.22;1.80;;;15.90;99.90;;;;;;4939699;29;20223;-78
2023/10/08 10:59:54;;;;;;;6.82;1.50;;;16.20;99.90;;;;;;4931720;29;20232;-76
2023/10/08 11:02:21;;;;;;;5.28;1.70;;;15.80;99.90;;;;;;4926947;29;20208;-78
2023/10/08 11:04:48;;;;;;;7.45;1.85;;;15.80;99.90;;;;;;4936305;29;20667;-78
2023/10/08 11:07:17;;;;;;;3.65;1.60;;;15.80;99.90;;;;;;4937027;29;20213;-78
2023/10/08 11:09:45;;;;;;;5.45;2.20;;;15.70;99.90;;;;;;4930010;29;20319;-78
2023/10/08 11:12:22;;;;;;;4.97;1.73;;;15.80;99.90;;;;;;4932912;29;20597;-78
2023/10/08 11:14:51;;;;;;;4.60;1.30;;;15.70;99.90;;;;;;4934365;29;20214;-78
2023/10/08 11:17:26;;;;;;;4.75;1.60;;;15.80;99.90;;;;;;4934504;29;20204;-78
2023/10/08 11:19:53;;;;;;;3.13;1.38;;;16.40;99.90;;;;;;4933968;29;20258;-78
2023/10/08 11:22:22;;;;;;;7.50;1.63;;;16.40;99.90;;;;;;4940582;29;20199;-77
2023/10/08 11:24:53;;;;;;;5.88;1.90;;;16.20;99.90;;;;;;4945224;29;20235;-78
2023/10/08 11:27:29;;;;;;;3.05;1.20;;;16.40;99.90;;;;;;4929953;29;20242;-76
2023/10/08 11:29:57;;;;;;;4.63;1.90;;;16.40;99.90;;;;;;4939185;29;20223;-78
2023/10/08 11:32:27;;;;;;;5.50;1.40;;;16.40;99.90;;;;;;4936940;29;20206;-77
2023/10/08 11:34:59;;;;;;;3.05;1.40;;;16.70;99.90;;;;;;4936345;29;20207;-77
2023/10/08 11:37:30;;;;;;;2.63;1.15;;;17.00;99.90;;;;;;4939187;29;20218;-76
2023/10/08 11:39:58;;;;;;;4.18;1.70;;;16.50;99.90;;;;;;4936024;29;20234;-77
2023/10/08 11:42:44;;;;;;;5.55;1.63;;;16.70;99.90;;;;;;4937699;29;20203;-77
2023/10/08 11:45:25;;;;;;;4.97;1.50;;;17.00;99.90;;;;;;4949611;29;20203;-77
2023/10/08 11:47:56;;;;;;;5.53;1.48;;;17.40;99.90;;;;;;4932118;29;20199;-78
2023/10/08 11:50:31;;;;;;;6.72;1.83;;;17.60;99.90;;;;;;4941044;29;20199;-76
2023/10/08 11:53:02;;;;;;;7.93;1.48;;;18.10;99.90;;;;;;4937627;29;20606;-78
2023/10/08 11:55:30;;;;;;;8.45;1.70;;;18.10;99.90;;;;;;4932488;29;20727;-77
2023/10/08 11:57:57;;;;;;;5.88;1.75;;;18.00;99.90;;;;;;4939448;29;20322;-79
2023/10/08 12:00:26;;;;;;;3.08;1.50;;;18.20;99.90;;;;;;4936380;29;20222;-78
2023/10/08 12:02:55;;;;;;;4.60;1.60;;;18.00;99.90;;;;;;4942900;29;20589;-79
2023/10/08 12:05:23;;;;;;;5.03;1.67;;;18.10;99.90;;;;;;4937105;29;20230;-77
2023/10/08 12:07:51;;;;;;;6.45;1.70;;;17.70;99.90;;;;;;4936870;29;20637;-78
2023/10/08 12:10:22;;;;;;;6.72;1.42;;;17.40;99.90;;;;;;4937897;29;20211;-78
2023/10/08 12:12:49;;;;;;;3.95;1.55;;;18.10;99.90;;;;;;4936348;29;20210;-79
2023/10/08 12:15:19;;;;;;;6.57;1.98;;;18.40;99.90;;;;;;4932216;29;20684;-77
2023/10/08 12:18:08;;;;;;;5.85;2.15;;;18.60;99.90;;;;;;4939761;29;20253;-77
2023/10/08 12:20:38;;;;;;;4.63;1.73;;;18.60;99.90;;;;;;4937638;29;20227;-79
2023/10/08 12:23:07;;;;;;;3.60;1.52;;;18.00;99.90;;;;;;4944571;29;20697;-77
2023/10/08 12:25:45;;;;;;;5.65;2.50;;;17.60;99.90;;;;;;4947749;29;20643;-77
2023/10/08 12:28:15;;;;;;;6.75;2.15;;;17.60;99.90;;;;;;4946471;29;20241;-77
2023/10/08 12:30:42;;;;;;;5.75;1.95;;;17.40;99.90;;;;;;4950272;29;20210;-80
2023/10/08 12:33:12;;;;;;;3.53;1.95;;;17.30;99.90;;;;;;4942326;29;20210;-79
2023/10/08 12:35:41;;;;;;;8.38;1.77;;;17.20;99.90;;;;;;4944055;29;20203;-78
2023/10/08 12:38:08;;;;;;;7.53;2.40;;;16.90;99.90;;;;;;4943366;29;20245;-78
2023/10/08 12:40:47;;;;;;;8.23;2.42;;;16.60;99.90;;;;;;4933583;29;20687;-78
2023/10/08 12:43:18;;;;;;;5.93;2.45;;;16.70;99.90;;;;;;4958510;29;20207;-78
2023/10/08 12:45:51;;;;;;;6.10;2.10;;;16.40;99.90;;;;;;4960265;29;20619;-78
2023/10/08 12:48:19;;;;;;;4.53;1.80;;;16.50;99.90;;;;;;4932953;29;20228;-78
2023/10/08 12:50:52;;;;;;;5.20;1.90;;;16.80;99.90;;;;;;4936558;29;20305;-78
2023/10/08 12:53:23;;;;;;;4.13;1.50;;;17.10;99.90;;;;;;4952696;29;20688;-78
2023/10/08 12:55:53;;;;;;;7.07;1.65;;;17.10;99.90;;;;;;4955477;29;20623;-77
2023/10/08 12:58:23;;;;;;;7.28;1.83;;;17.10;99.90;;;;;;4954939;29;20320;-77
2023/10/08 13:00:57;;;;;;;9.63;1.67;;;16.70;99.90;;;;;;4942801;29;20227;-78
2023/10/08 13:03:24;;;;;;;5.63;1.48;;;17.20;99.90;;;;;;4944720;29;20254;-79
2023/10/08 13:05:53;;;;;;;5.95;1.63;;;17.50;99.90;;;;;;4943355;29;20217;-78
2023/10/08 13:08:20;;;;;;;3.78;1.50;;;17.10;99.90;;;;;;4935183;29;20230;-77
2023/10/08 13:10:47;;;;;;;4.22;1.55;;;17.00;99.90;;;;;;4941298;29;20290;-79
2023/10/08 13:13:14;;;;;;;4.05;1.63;;;16.80;99.90;;;;;;4942489;29;20209;-78
2023/10/08 13:15:42;;;;;;;4.63;1.52;;;16.70;99.90;;;;;;4942716;29;20239;-78
2023/10/08 13:18:10;;;;;;;3.42;1.50;;;16.60;99.90;;;;;;4941918;29;20227;-80
2023/10/08 13:20:37;;;;;;;3.97;1.67;;;16.50;99.90;;;;;;4942228;29;20226;-78
2023/10/08 13:23:05;;;;;;;5.30;1.65;;;16.60;99.90;;;;;;4942164;29;20218;-80
2023/10/08 13:25:36;;;;;;;3.22;1.40;;;16.40;99.90;;;;;;4939379;29;20563;-79
2023/10/08 13:28:02;;;;;;;6.28;1.67;;;16.30;99.90;;;;;;4941702;29;20234;-79
2023/10/08 13:30:29;;;;;;;7.40;2.15;;;16.40;99.90;;;;;;4941078;29;20296;-79